sensor_id;sensor_type;location;lat;lon;timestamp;temperature;humidity
12276;DHT22;6200;48.144;11.424;2024-03-08T00:00:08;2.70;99.90
12276;DHT22;6200;48.144;11.424;2024-03-08T00:02:36;2.60;99.90
12276;DHT22;6200;48.144;11.424;2024-03-08T00:05:03;2.60;99.90
12276;DHT22;6200;48.144;11.424;2024-03-08T00:07:29;2.70;99.90
12276;DHT22;6200;48.144;11.424;2024-03-08T00:09:54;2.70;99.90
12276;DHT22;6200;48.144;11.424;2024-03-08T00:12:20;2.60;99.90
12276;DHT22;6200;48.144;11.424;2024-03-08T00:14:45;2.70;99.90
12276;DHT22;6200;48.144;11.424;2024-03-08T00:17:11;2.60;99.90
12276;DHT22;6200;48.144;11.424;2024-03-08T00:19:36;2.60;99.90
12276;DHT22;6200;48.144;11.424;2024-03-08T00:22:02;2.50;99.90
12276;DHT22;6200;48.144;11.424;2024-03-08T00:24:27;2.50;99.90
12276;DHT22;6200;48.144;11.424;2024-03-08T00:26:54;2.50;99.90
12276;DHT22;6200;48.144;11.424;2024-03-08T00:29:20;2.50;99.90
12276;DHT22;6200;48.144;11.424;2024-03-08T00:31:45;2.50;99.90
12276;DHT22;6200;48.144;11.424;2024-03-08T00:34:11;2.50;99.90
12276;DHT22;6200;48.144;11.424;2024-03-08T00:36:37;2.50;99.90
12276;DHT22;6200;48.144;11.424;2024-03-08T00:39:03;2.50;99.90
12276;DHT22;6200;48.144;11.424;2024-03-08T00:41:32;2.60;99.90
12276;DHT22;6200;48.144;11.424;2024-03-08T00:43:57;2.40;99.90
12276;DHT22;6200;48.144;11.424;2024-03-08T00:46:23;2.40;99.90
12276;DHT22;6200;48.144;11.424;2024-03-08T00:48:48;2.40;99.90
12276;DHT22;6200;48.144;11.424;2024-03-08T00:51:14;2.40;99.90
12276;DHT22;6200;48.144;11.424;2024-03-08T00:53:41;2.40;99.90
12276;DHT22;6200;48.144;11.424;2024-03-08T00:56:08;2.40;99.90
12276;DHT22;6200;48.144;11.424;2024-03-08T00:58:36;2.40;99.90
12276;DHT22;6200;48.144;11.424;2024-03-08T01:01:02;2.40;99.90
12276;DHT22;6200;48.144;11.424;2024-03-08T01:03:28;2.40;99.90
12276;DHT22;6200;48.144;11.424;2024-03-08T01:05:57;2.40;99.90
12276;DHT22;6200;48.144;11.424;2024-03-08T01:08:23;2.40;99.90
12276;DHT22;6200;48.144;11.424;2024-03-08T01:10:48;2.30;99.90
12276;DHT22;6200;48.144;11.424;2024-03-08T01:13:16;2.30;99.90
12276;DHT22;6200;48.144;11.424;2024-03-08T01:15:41;2.30;99.90
12276;DHT22;6200;48.144;11.424;2024-03-08T01:18:07;2.30;99.90
12276;DHT22;6200;48.144;11.424;2024-03-08T01:20:32;2.30;99.90
12276;DHT22;6200;48.144;11.424;2024-03-08T01:22:58;2.40;99.90
12276;DHT22;6200;48.144;11.424;2024-03-08T01:25:23;2.30;99.90
12276;DHT22;6200;48.144;11.424;2024-03-08T01:27:49;2.30;99.90
12276;DHT22;6200;48.144;11.424;2024-03-08T01:30:14;2.30;99.90
12276;DHT22;6200;48.144;11.424;2024-03-08T01:32:42;2.20;99.90
12276;DHT22;6200;48.144;11.424;2024-03-08T01:35:09;2.20;99.90
12276;DHT22;6200;48.144;11.424;2024-03-08T01:37:35;2.20;99.90
12276;DHT22;6200;48.144;11.424;2024-03-08T01:40:00;2.10;99.90
12276;DHT22;6200;48.144;11.424;2024-03-08T01:42:26;2.20;99.90
12276;DHT22;6200;48.144;11.424;2024-03-08T01:44:51;2.10;99.90
12276;DHT22;6200;48.144;11.424;2024-03-08T01:47:17;2.10;99.90
12276;DHT22;6200;48.144;11.424;2024-03-08T01:49:43;2.10;99.90
12276;DHT22;6200;48.144;11.424;2024-03-08T01:52:09;2.10;99.90
12276;DHT22;6200;48.144;11.424;2024-03-08T01:54:36;2.10;99.90
12276;DHT22;6200;48.144;11.424;2024-03-08T01:57:02;2.10;99.90
12276;DHT22;6200;48.144;11.424;2024-03-08T01:59:28;2.10;99.90
12276;DHT22;6200;48.144;11.424;2024-03-08T02:01:55;2.10;99.90
12276;DHT22;6200;48.144;11.424;2024-03-08T02:04:23;2.10;99.90
12276;DHT22;6200;48.144;11.424;2024-03-08T02:06:49;2.10;99.90
12276;DHT22;6200;48.144;11.424;2024-03-08T02:09:15;2.10;99.90
12276;DHT22;6200;48.144;11.424;2024-03-08T02:11:42;2.00;99.90
12276;DHT22;6200;48.144;11.424;2024-03-08T02:14:08;2.00;99.90
12276;DHT22;6200;48.144;11.424;2024-03-08T02:16:34;2.00;99.90
12276;DHT22;6200;48.144;11.424;2024-03-08T02:19:00;2.00;99.90
12276;DHT22;6200;48.144;11.424;2024-03-08T02:21:26;1.90;99.90
12276;DHT22;6200;48.144;11.424;2024-03-08T02:23:51;1.90;99.90
12276;DHT22;6200;48.144;11.424;2024-03-08T02:26:17;1.90;99.90
12276;DHT22;6200;48.144;11.424;2024-03-08T02:28:44;1.90;99.90
12276;DHT22;6200;48.144;11.424;2024-03-08T02:31:10;2.00;99.90
12276;DHT22;6200;48.144;11.424;2024-03-08T02:33:36;1.90;99.90
12276;DHT22;6200;48.144;11.424;2024-03-08T02:36:01;1.90;99.90
12276;DHT22;6200;48.144;11.424;2024-03-08T02:38:27;1.90;99.90
12276;DHT22;6200;48.144;11.424;2024-03-08T02:40:53;1.90;99.90
12276;DHT22;6200;48.144;11.424;2024-03-08T02:43:20;1.80;99.90
12276;DHT22;6200;48.144;11.424;2024-03-08T02:45:47;1.80;99.90
12276;DHT22;6200;48.144;11.424;2024-03-08T02:48:14;1.80;99.90
12276;DHT22;6200;48.144;11.424;2024-03-08T02:50:40;1.80;99.90
12276;DHT22;6200;48.144;11.424;2024-03-08T02:53:08;1.80;99.90
12276;DHT22;6200;48.144;11.424;2024-03-08T02:55:33;1.70;99.90
12276;DHT22;6200;48.144;11.424;2024-03-08T02:58:01;1.70;99.90
12276;DHT22;6200;48.144;11.424;2024-03-08T03:00:28;1.70;99.90
12276;DHT22;6200;48.144;11.424;2024-03-08T03:02:56;1.70;99.90
12276;DHT22;6200;48.144;11.424;2024-03-08T03:05:22;1.70;99.90
12276;DHT22;6200;48.144;11.424;2024-03-08T03:07:48;1.70;99.90
12276;DHT22;6200;48.144;11.424;2024-03-08T03:10:14;0.70;99.90
12276;DHT22;6200;48.144;11.424;2024-03-08T03:12:42;1.70;99.90
12276;DHT22;6200;48.144;11.424;2024-03-08T03:15:08;1.80;99.90
12276;DHT22;6200;48.144;11.424;2024-03-08T03:17:34;1.70;99.90
12276;DHT22;6200;48.144;11.424;2024-03-08T03:19:59;1.70;99.90
12276;DHT22;6200;48.144;11.424;2024-03-08T03:22:30;1.70;99.90
12276;DHT22;6200;48.144;11.424;2024-03-08T03:24:55;1.60;99.90
12276;DHT22;6200;48.144;11.424;2024-03-08T03:27:23;1.60;99.90
12276;DHT22;6200;48.144;11.424;2024-03-08T03:29:50;1.70;99.90
12276;DHT22;6200;48.144;11.424;2024-03-08T03:32:17;1.60;99.90
12276;DHT22;6200;48.144;11.424;2024-03-08T03:34:43;1.60;99.90
12276;DHT22;6200;48.144;11.424;2024-03-08T03:37:10;1.60;99.90
12276;DHT22;6200;48.144;11.424;2024-03-08T03:39:39;1.60;99.90
12276;DHT22;6200;48.144;11.424;2024-03-08T03:42:19;1.60;99.90
12276;DHT22;6200;48.144;11.424;2024-03-08T03:44:46;1.50;99.90
12276;DHT22;6200;48.144;11.424;2024-03-08T03:47:12;1.50;99.90
12276;DHT22;6200;48.144;11.424;2024-03-08T03:49:38;1.50;99.90
12276;DHT22;6200;48.144;11.424;2024-03-08T03:52:04;1.50;99.90
12276;DHT22;6200;48.144;11.424;2024-03-08T03:54:30;1.50;99.90
12276;DHT22;6200;48.144;11.424;2024-03-08T03:56:56;1.50;99.90
12276;DHT22;6200;48.144;11.424;2024-03-08T03:59:21;1.50;99.90
12276;DHT22;6200;48.144;11.424;2024-03-08T04:01:47;1.50;99.90
12276;DHT22;6200;48.144;11.424;2024-03-08T04:04:12;1.40;99.90
12276;DHT22;6200;48.144;11.424;2024-03-08T04:06:38;1.40;99.90
12276;DHT22;6200;48.144;11.424;2024-03-08T04:09:03;1.40;99.90
12276;DHT22;6200;48.144;11.424;2024-03-08T04:11:30;1.40;99.90
12276;DHT22;6200;48.144;11.424;2024-03-08T04:13:56;1.40;99.90
12276;DHT22;6200;48.144;11.424;2024-03-08T04:16:21;1.30;99.90
12276;DHT22;6200;48.144;11.424;2024-03-08T04:18:47;1.40;99.90
12276;DHT22;6200;48.144;11.424;2024-03-08T04:21:13;1.40;99.90
12276;DHT22;6200;48.144;11.424;2024-03-08T04:23:38;1.40;99.90
12276;DHT22;6200;48.144;11.424;2024-03-08T04:26:04;1.40;99.90
12276;DHT22;6200;48.144;11.424;2024-03-08T04:28:31;1.40;99.90
12276;DHT22;6200;48.144;11.424;2024-03-08T04:30:57;1.40;99.90
12276;DHT22;6200;48.144;11.424;2024-03-08T04:33:22;1.30;99.90
12276;DHT22;6200;48.144;11.424;2024-03-08T04:35:48;1.30;99.90
12276;DHT22;6200;48.144;11.424;2024-03-08T04:38:14;1.30;99.90
12276;DHT22;6200;48.144;11.424;2024-03-08T04:40:41;1.30;99.90
12276;DHT22;6200;48.144;11.424;2024-03-08T04:43:06;1.30;99.90
12276;DHT22;6200;48.144;11.424;2024-03-08T04:45:33;1.30;99.90
12276;DHT22;6200;48.144;11.424;2024-03-08T04:47:59;1.30;99.90
12276;DHT22;6200;48.144;11.424;2024-03-08T04:50:24;1.20;99.90
12276;DHT22;6200;48.144;11.424;2024-03-08T04:52:50;1.20;99.90
12276;DHT22;6200;48.144;11.424;2024-03-08T04:55:15;1.30;99.90
12276;DHT22;6200;48.144;11.424;2024-03-08T04:57:41;1.20;99.90
12276;DHT22;6200;48.144;11.424;2024-03-08T05:00:10;1.20;99.90
12276;DHT22;6200;48.144;11.424;2024-03-08T05:02:39;1.20;99.90
12276;DHT22;6200;48.144;11.424;2024-03-08T05:05:08;1.30;99.90
12276;DHT22;6200;48.144;11.424;2024-03-08T05:07:41;1.30;99.90
12276;DHT22;6200;48.144;11.424;2024-03-08T05:10:07;1.20;99.90
12276;DHT22;6200;48.144;11.424;2024-03-08T05:12:33;1.20;99.90
12276;DHT22;6200;48.144;11.424;2024-03-08T05:14:58;1.20;99.90
12276;DHT22;6200;48.144;11.424;2024-03-08T05:17:24;1.20;99.90
12276;DHT22;6200;48.144;11.424;2024-03-08T05:19:50;1.20;99.90
12276;DHT22;6200;48.144;11.424;2024-03-08T05:22:16;1.20;99.90
12276;DHT22;6200;48.144;11.424;2024-03-08T05:24:42;1.20;99.90
12276;DHT22;6200;48.144;11.424;2024-03-08T05:27:08;1.20;99.90
12276;DHT22;6200;48.144;11.424;2024-03-08T05:29:33;1.20;99.90
12276;DHT22;6200;48.144;11.424;2024-03-08T05:31:59;1.20;99.90
12276;DHT22;6200;48.144;11.424;2024-03-08T05:34:25;1.20;99.90
12276;DHT22;6200;48.144;11.424;2024-03-08T05:36:51;1.20;99.90
12276;DHT22;6200;48.144;11.424;2024-03-08T05:39:17;1.20;99.90
12276;DHT22;6200;48.144;11.424;2024-03-08T05:41:44;1.20;99.90
12276;DHT22;6200;48.144;11.424;2024-03-08T05:44:10;1.20;99.90
12276;DHT22;6200;48.144;11.424;2024-03-08T05:46:36;1.20;99.90
12276;DHT22;6200;48.144;11.424;2024-03-08T05:49:05;1.20;99.90
12276;DHT22;6200;48.144;11.424;2024-03-08T05:51:32;1.10;99.90
12276;DHT22;6200;48.144;11.424;2024-03-08T05:54:02;2.20;99.90
12276;DHT22;6200;48.144;11.424;2024-03-08T05:56:29;1.10;99.90
12276;DHT22;6200;48.144;11.424;2024-03-08T05:58:54;1.10;99.90
12276;DHT22;6200;48.144;11.424;2024-03-08T06:01:20;1.10;99.90
12276;DHT22;6200;48.144;11.424;2024-03-08T06:03:47;1.10;99.90
12276;DHT22;6200;48.144;11.424;2024-03-08T06:06:14;1.10;99.90
12276;DHT22;6200;48.144;11.424;2024-03-08T06:08:40;1.10;99.90
12276;DHT22;6200;48.144;11.424;2024-03-08T06:11:08;1.20;99.90
12276;DHT22;6200;48.144;11.424;2024-03-08T06:13:34;1.20;99.90
12276;DHT22;6200;48.144;11.424;2024-03-08T06:16:00;1.20;99.90
12276;DHT22;6200;48.144;11.424;2024-03-08T06:18:34;1.30;99.90
12276;DHT22;6200;48.144;11.424;2024-03-08T06:21:04;1.30;99.90
12276;DHT22;6200;48.144;11.424;2024-03-08T06:23:34;1.30;99.90
12276;DHT22;6200;48.144;11.424;2024-03-08T06:26:07;1.40;99.90
12276;DHT22;6200;48.144;11.424;2024-03-08T06:28:32;1.40;99.90
12276;DHT22;6200;48.144;11.424;2024-03-08T06:30:58;1.40;99.90
12276;DHT22;6200;48.144;11.424;2024-03-08T06:33:24;1.40;99.90
12276;DHT22;6200;48.144;11.424;2024-03-08T06:35:52;1.50;99.90
12276;DHT22;6200;48.144;11.424;2024-03-08T06:38:17;1.50;99.90
12276;DHT22;6200;48.144;11.424;2024-03-08T06:40:43;1.50;99.90
12276;DHT22;6200;48.144;11.424;2024-03-08T06:43:09;1.50;99.90
12276;DHT22;6200;48.144;11.424;2024-03-08T06:45:36;1.60;99.90
12276;DHT22;6200;48.144;11.424;2024-03-08T06:48:03;1.60;99.90
12276;DHT22;6200;48.144;11.424;2024-03-08T06:50:28;1.60;99.90
12276;DHT22;6200;48.144;11.424;2024-03-08T06:52:54;1.60;99.90
12276;DHT22;6200;48.144;11.424;2024-03-08T06:55:20;1.60;99.90
12276;DHT22;6200;48.144;11.424;2024-03-08T06:57:46;1.70;99.90
12276;DHT22;6200;48.144;11.424;2024-03-08T07:00:11;1.70;99.90
12276;DHT22;6200;48.144;11.424;2024-03-08T07:02:46;1.70;99.90
12276;DHT22;6200;48.144;11.424;2024-03-08T07:05:14;1.80;99.90
12276;DHT22;6200;48.144;11.424;2024-03-08T07:07:39;1.90;99.90
12276;DHT22;6200;48.144;11.424;2024-03-08T07:10:07;1.90;99.90
12276;DHT22;6200;48.144;11.424;2024-03-08T07:12:37;1.90;99.90
12276;DHT22;6200;48.144;11.424;2024-03-08T07:15:03;1.90;99.90
12276;DHT22;6200;48.144;11.424;2024-03-08T07:17:28;1.90;99.90
12276;DHT22;6200;48.144;11.424;2024-03-08T07:19:54;2.00;99.90
12276;DHT22;6200;48.144;11.424;2024-03-08T07:22:19;1.90;99.90
12276;DHT22;6200;48.144;11.424;2024-03-08T07:24:45;1.90;99.90
12276;DHT22;6200;48.144;11.424;2024-03-08T07:27:19;2.00;99.90
12276;DHT22;6200;48.144;11.424;2024-03-08T07:29:45;2.00;99.90
12276;DHT22;6200;48.144;11.424;2024-03-08T07:32:11;2.00;99.90
12276;DHT22;6200;48.144;11.424;2024-03-08T07:34:51;2.10;99.90
12276;DHT22;6200;48.144;11.424;2024-03-08T07:37:17;2.10;99.90
12276;DHT22;6200;48.144;11.424;2024-03-08T07:39:43;2.10;99.90
12276;DHT22;6200;48.144;11.424;2024-03-08T07:42:11;2.20;99.90
12276;DHT22;6200;48.144;11.424;2024-03-08T07:44:37;2.20;99.90
12276;DHT22;6200;48.144;11.424;2024-03-08T07:47:03;2.20;99.90
12276;DHT22;6200;48.144;11.424;2024-03-08T07:49:29;2.20;99.90
12276;DHT22;6200;48.144;11.424;2024-03-08T07:51:55;2.30;99.90
12276;DHT22;6200;48.144;11.424;2024-03-08T07:54:21;2.40;99.90
12276;DHT22;6200;48.144;11.424;2024-03-08T07:56:47;2.50;99.90
12276;DHT22;6200;48.144;11.424;2024-03-08T07:59:12;2.50;99.90
12276;DHT22;6200;48.144;11.424;2024-03-08T08:01:38;2.60;99.90
12276;DHT22;6200;48.144;11.424;2024-03-08T08:04:04;2.70;99.90
12276;DHT22;6200;48.144;11.424;2024-03-08T08:06:30;2.80;99.90
12276;DHT22;6200;48.144;11.424;2024-03-08T08:08:59;2.80;99.90
12276;DHT22;6200;48.144;11.424;2024-03-08T08:11:26;2.80;99.90
12276;DHT22;6200;48.144;11.424;2024-03-08T08:13:54;2.90;99.90
12276;DHT22;6200;48.144;11.424;2024-03-08T08:16:22;3.00;99.90
12276;DHT22;6200;48.144;11.424;2024-03-08T08:18:48;3.10;99.90
12276;DHT22;6200;48.144;11.424;2024-03-08T08:21:14;3.30;99.90
12276;DHT22;6200;48.144;11.424;2024-03-08T08:23:39;3.40;99.90
12276;DHT22;6200;48.144;11.424;2024-03-08T08:26:05;3.60;99.90
12276;DHT22;6200;48.144;11.424;2024-03-08T08:28:33;3.90;99.90
12276;DHT22;6200;48.144;11.424;2024-03-08T08:30:58;4.10;99.90
12276;DHT22;6200;48.144;11.424;2024-03-08T08:33:25;4.30;99.90
12276;DHT22;6200;48.144;11.424;2024-03-08T08:35:51;4.40;99.90
12276;DHT22;6200;48.144;11.424;2024-03-08T08:38:19;4.60;99.90
12276;DHT22;6200;48.144;11.424;2024-03-08T08:40:45;4.60;99.90
12276;DHT22;6200;48.144;11.424;2024-03-08T08:43:12;4.60;99.90
12276;DHT22;6200;48.144;11.424;2024-03-08T08:45:38;4.70;99.90
12276;DHT22;6200;48.144;11.424;2024-03-08T08:48:04;4.80;99.90
12276;DHT22;6200;48.144;11.424;2024-03-08T08:50:30;4.80;99.90
12276;DHT22;6200;48.144;11.424;2024-03-08T08:52:57;4.90;99.90
12276;DHT22;6200;48.144;11.424;2024-03-08T08:55:23;4.90;99.90
12276;DHT22;6200;48.144;11.424;2024-03-08T08:57:52;5.10;99.90
12276;DHT22;6200;48.144;11.424;2024-03-08T09:00:20;5.20;99.90
12276;DHT22;6200;48.144;11.424;2024-03-08T09:02:47;5.10;99.90
12276;DHT22;6200;48.144;11.424;2024-03-08T09:05:13;5.20;99.90
12276;DHT22;6200;48.144;11.424;2024-03-08T09:07:45;5.60;99.90
12276;DHT22;6200;48.144;11.424;2024-03-08T09:10:11;5.90;99.90
12276;DHT22;6200;48.144;11.424;2024-03-08T09:12:38;6.20;99.90
12276;DHT22;6200;48.144;11.424;2024-03-08T09:15:05;6.50;99.90
12276;DHT22;6200;48.144;11.424;2024-03-08T09:17:33;6.90;99.90
12276;DHT22;6200;48.144;11.424;2024-03-08T09:19:59;7.20;99.90
12276;DHT22;6200;48.144;11.424;2024-03-08T09:22:24;7.60;99.90
12276;DHT22;6200;48.144;11.424;2024-03-08T09:24:50;7.80;99.90
12276;DHT22;6200;48.144;11.424;2024-03-08T09:27:16;8.20;99.90
12276;DHT22;6200;48.144;11.424;2024-03-08T09:29:41;8.50;99.90
12276;DHT22;6200;48.144;11.424;2024-03-08T09:32:07;8.60;99.90
12276;DHT22;6200;48.144;11.424;2024-03-08T09:34:32;8.70;99.90
12276;DHT22;6200;48.144;11.424;2024-03-08T09:36:58;8.80;99.90
12276;DHT22;6200;48.144;11.424;2024-03-08T09:39:24;9.00;99.90
12276;DHT22;6200;48.144;11.424;2024-03-08T09:41:49;9.30;99.90
12276;DHT22;6200;48.144;11.424;2024-03-08T09:44:15;9.50;99.90
12276;DHT22;6200;48.144;11.424;2024-03-08T09:46:42;9.70;99.90
12276;DHT22;6200;48.144;11.424;2024-03-08T09:49:09;9.70;99.90
12276;DHT22;6200;48.144;11.424;2024-03-08T09:51:37;9.60;99.90
12276;DHT22;6200;48.144;11.424;2024-03-08T09:54:05;9.50;99.90
12276;DHT22;6200;48.144;11.424;2024-03-08T09:56:35;10.50;99.90
12276;DHT22;6200;48.144;11.424;2024-03-08T09:59:02;9.80;99.90
12276;DHT22;6200;48.144;11.424;2024-03-08T10:01:33;10.00;99.90
12276;DHT22;6200;48.144;11.424;2024-03-08T10:03:59;10.40;99.90
12276;DHT22;6200;48.144;11.424;2024-03-08T10:06:24;10.60;99.90
12276;DHT22;6200;48.144;11.424;2024-03-08T10:08:50;10.60;99.90
12276;DHT22;6200;48.144;11.424;2024-03-08T10:11:19;10.80;99.90
12276;DHT22;6200;48.144;11.424;2024-03-08T10:13:47;10.80;99.90
12276;DHT22;6200;48.144;11.424;2024-03-08T10:16:13;11.00;99.90
12276;DHT22;6200;48.144;11.424;2024-03-08T10:18:39;11.10;99.90
12276;DHT22;6200;48.144;11.424;2024-03-08T10:21:07;11.20;99.90
12276;DHT22;6200;48.144;11.424;2024-03-08T10:23:35;11.40;99.90
12276;DHT22;6200;48.144;11.424;2024-03-08T10:26:14;11.60;99.80
12276;DHT22;6200;48.144;11.424;2024-03-08T10:28:41;11.70;99.10
12276;DHT22;6200;48.144;11.424;2024-03-08T10:31:06;11.80;98.90
12276;DHT22;6200;48.144;11.424;2024-03-08T10:33:32;11.90;98.50
12276;DHT22;6200;48.144;11.424;2024-03-08T10:35:59;11.90;97.50
12276;DHT22;6200;48.144;11.424;2024-03-08T10:38:26;11.80;97.60
12276;DHT22;6200;48.144;11.424;2024-03-08T10:40:57;11.70;97.80
12276;DHT22;6200;48.144;11.424;2024-03-08T10:43:24;11.90;97.60
12276;DHT22;6200;48.144;11.424;2024-03-08T10:45:54;11.70;97.20
12276;DHT22;6200;48.144;11.424;2024-03-08T10:48:29;11.80;97.60
12276;DHT22;6200;48.144;11.424;2024-03-08T10:50:59;11.80;97.10
12276;DHT22;6200;48.144;11.424;2024-03-08T10:53:27;11.80;96.90
12276;DHT22;6200;48.144;11.424;2024-03-08T10:55:53;12.00;97.10
12276;DHT22;6200;48.144;11.424;2024-03-08T10:58:20;12.20;96.50
12276;DHT22;6200;48.144;11.424;2024-03-08T11:00:48;12.30;95.80
12276;DHT22;6200;48.144;11.424;2024-03-08T11:06:17;12.40;96.00
12276;DHT22;6200;48.144;11.424;2024-03-08T11:08:45;12.20;95.50
12276;DHT22;6200;48.144;11.424;2024-03-08T11:13:55;12.70;94.80
12276;DHT22;6200;48.144;11.424;2024-03-08T11:18:59;12.90;94.50
12276;DHT22;6200;48.144;11.424;2024-03-08T11:21:32;13.00;95.10
12276;DHT22;6200;48.144;11.424;2024-03-08T11:24:14;13.20;94.90
12276;DHT22;6200;48.144;11.424;2024-03-08T11:26:42;13.40;93.90
12276;DHT22;6200;48.144;11.424;2024-03-08T11:32:26;13.50;93.10
12276;DHT22;6200;48.144;11.424;2024-03-08T11:34:53;13.60;92.50
12276;DHT22;6200;48.144;11.424;2024-03-08T11:37:20;13.60;92.40
12276;DHT22;6200;48.144;11.424;2024-03-08T11:39:51;13.70;92.00
12276;DHT22;6200;48.144;11.424;2024-03-08T11:42:17;13.70;91.90
12276;DHT22;6200;48.144;11.424;2024-03-08T11:44:44;13.70;91.60
12276;DHT22;6200;48.144;11.424;2024-03-08T11:47:11;13.70;92.50
12276;DHT22;6200;48.144;11.424;2024-03-08T11:49:37;13.80;92.20
12276;DHT22;6200;48.144;11.424;2024-03-08T11:52:04;13.90;91.10
12276;DHT22;6200;48.144;11.424;2024-03-08T11:54:30;14.00;91.60
12276;DHT22;6200;48.144;11.424;2024-03-08T11:56:56;14.00;91.10
12276;DHT22;6200;48.144;11.424;2024-03-08T11:59:29;14.10;91.20
12276;DHT22;6200;48.144;11.424;2024-03-08T12:02:01;14.20;90.30
12276;DHT22;6200;48.144;11.424;2024-03-08T12:04:27;14.20;91.20
12276;DHT22;6200;48.144;11.424;2024-03-08T12:06:53;14.40;90.40
12276;DHT22;6200;48.144;11.424;2024-03-08T12:09:18;14.40;90.10
12276;DHT22;6200;48.144;11.424;2024-03-08T12:11:50;14.50;90.30
12276;DHT22;6200;48.144;11.424;2024-03-08T12:14:16;14.70;90.20
12276;DHT22;6200;48.144;11.424;2024-03-08T12:16:42;14.70;90.40
12276;DHT22;6200;48.144;11.424;2024-03-08T12:19:09;14.50;89.60
12276;DHT22;6200;48.144;11.424;2024-03-08T12:21:35;14.50;90.20
12276;DHT22;6200;48.144;11.424;2024-03-08T12:24:03;14.40;89.40
12276;DHT22;6200;48.144;11.424;2024-03-08T12:26:29;14.50;89.60
12276;DHT22;6200;48.144;11.424;2024-03-08T12:29:18;14.50;89.50
12276;DHT22;6200;48.144;11.424;2024-03-08T12:31:46;14.30;89.10
12276;DHT22;6200;48.144;11.424;2024-03-08T12:34:12;14.30;90.10
12276;DHT22;6200;48.144;11.424;2024-03-08T12:36:47;14.40;90.60
12276;DHT22;6200;48.144;11.424;2024-03-08T12:39:15;14.40;89.70
12276;DHT22;6200;48.144;11.424;2024-03-08T12:41:41;14.40;88.50
12276;DHT22;6200;48.144;11.424;2024-03-08T12:44:07;14.30;89.30
12276;DHT22;6200;48.144;11.424;2024-03-08T12:46:37;14.30;89.90
12276;DHT22;6200;48.144;11.424;2024-03-08T12:49:07;14.30;87.70
12276;DHT22;6200;48.144;11.424;2024-03-08T12:51:32;14.40;88.70
12276;DHT22;6200;48.144;11.424;2024-03-08T12:53:58;14.20;88.80
12276;DHT22;6200;48.144;11.424;2024-03-08T12:56:31;14.40;89.80
12276;DHT22;6200;48.144;11.424;2024-03-08T12:59:02;14.40;89.40
12276;DHT22;6200;48.144;11.424;2024-03-08T13:01:28;14.30;90.00
12276;DHT22;6200;48.144;11.424;2024-03-08T13:03:54;14.10;90.10
12276;DHT22;6200;48.144;11.424;2024-03-08T13:06:21;14.10;89.00
12276;DHT22;6200;48.144;11.424;2024-03-08T13:08:50;13.80;90.10
12276;DHT22;6200;48.144;11.424;2024-03-08T13:11:19;13.90;90.80
12276;DHT22;6200;48.144;11.424;2024-03-08T13:13:45;13.80;90.40
12276;DHT22;6200;48.144;11.424;2024-03-08T13:16:11;13.90;90.90
12276;DHT22;6200;48.144;11.424;2024-03-08T13:18:40;14.00;90.80
12276;DHT22;6200;48.144;11.424;2024-03-08T13:21:10;14.00;91.00
12276;DHT22;6200;48.144;11.424;2024-03-08T13:23:37;14.00;90.70
12276;DHT22;6200;48.144;11.424;2024-03-08T13:26:10;14.00;90.00
12276;DHT22;6200;48.144;11.424;2024-03-08T13:28:48;13.80;90.20
12276;DHT22;6200;48.144;11.424;2024-03-08T13:31:19;13.80;90.20
12276;DHT22;6200;48.144;11.424;2024-03-08T13:33:45;13.50;90.80
12276;DHT22;6200;48.144;11.424;2024-03-08T13:36:12;13.50;90.60
12276;DHT22;6200;48.144;11.424;2024-03-08T13:38:45;13.50;90.40
12276;DHT22;6200;48.144;11.424;2024-03-08T13:41:11;13.50;90.90
12276;DHT22;6200;48.144;11.424;2024-03-08T13:43:38;13.30;90.80
12276;DHT22;6200;48.144;11.424;2024-03-08T13:46:05;13.40;90.30
12276;DHT22;6200;48.144;11.424;2024-03-08T13:48:32;13.30;90.70
12276;DHT22;6200;48.144;11.424;2024-03-08T13:50:58;13.30;90.40
12276;DHT22;6200;48.144;11.424;2024-03-08T13:53:23;13.10;90.20
12276;DHT22;6200;48.144;11.424;2024-03-08T13:55:49;13.00;90.80
12276;DHT22;6200;48.144;11.424;2024-03-08T13:58:15;12.90;90.30
12276;DHT22;6200;48.144;11.424;2024-03-08T14:00:41;12.90;90.70
12276;DHT22;6200;48.144;11.424;2024-03-08T14:03:09;12.70;90.60
12276;DHT22;6200;48.144;11.424;2024-03-08T14:05:38;12.70;91.50
12276;DHT22;6200;48.144;11.424;2024-03-08T14:08:05;12.60;91.30
12276;DHT22;6200;48.144;11.424;2024-03-08T14:10:33;12.60;91.30
12276;DHT22;6200;48.144;11.424;2024-03-08T14:13:00;12.60;91.00
12276;DHT22;6200;48.144;11.424;2024-03-08T14:15:26;12.50;91.20
12276;DHT22;6200;48.144;11.424;2024-03-08T14:17:57;12.50;90.80
12276;DHT22;6200;48.144;11.424;2024-03-08T14:20:23;12.60;91.20
12276;DHT22;6200;48.144;11.424;2024-03-08T14:22:59;12.60;91.30
12276;DHT22;6200;48.144;11.424;2024-03-08T14:25:25;12.40;90.50
12276;DHT22;6200;48.144;11.424;2024-03-08T14:27:52;12.40;90.80
12276;DHT22;6200;48.144;11.424;2024-03-08T14:30:23;12.40;90.90
12276;DHT22;6200;48.144;11.424;2024-03-08T14:33:07;12.30;91.00
12276;DHT22;6200;48.144;11.424;2024-03-08T14:35:35;12.20;90.70
12276;DHT22;6200;48.144;11.424;2024-03-08T14:38:00;12.20;91.20
12276;DHT22;6200;48.144;11.424;2024-03-08T14:40:26;12.20;90.80
12276;DHT22;6200;48.144;11.424;2024-03-08T14:42:52;12.10;91.10
12276;DHT22;6200;48.144;11.424;2024-03-08T14:45:19;12.20;91.00
12276;DHT22;6200;48.144;11.424;2024-03-08T14:47:48;12.00;91.00
12276;DHT22;6200;48.144;11.424;2024-03-08T14:50:17;12.10;91.20
12276;DHT22;6200;48.144;11.424;2024-03-08T14:52:44;12.10;91.30
12276;DHT22;6200;48.144;11.424;2024-03-08T14:55:09;12.10;91.60
12276;DHT22;6200;48.144;11.424;2024-03-08T14:57:39;12.00;91.40
12276;DHT22;6200;48.144;11.424;2024-03-08T15:00:05;12.00;91.40
12276;DHT22;6200;48.144;11.424;2024-03-08T15:02:31;12.00;91.50
12276;DHT22;6200;48.144;11.424;2024-03-08T15:05:03;11.80;91.90
12276;DHT22;6200;48.144;11.424;2024-03-08T15:07:34;11.80;91.90
12276;DHT22;6200;48.144;11.424;2024-03-08T15:10:00;11.70;91.30
12276;DHT22;6200;48.144;11.424;2024-03-08T15:12:25;11.60;91.90
12276;DHT22;6200;48.144;11.424;2024-03-08T15:14:54;11.60;92.00
12276;DHT22;6200;48.144;11.424;2024-03-08T15:17:21;11.60;91.70
12276;DHT22;6200;48.144;11.424;2024-03-08T15:19:50;11.50;91.70
12276;DHT22;6200;48.144;11.424;2024-03-08T15:22:17;11.50;91.80
12276;DHT22;6200;48.144;11.424;2024-03-08T15:24:44;11.50;91.70
12276;DHT22;6200;48.144;11.424;2024-03-08T15:27:09;11.40;92.20
12276;DHT22;6200;48.144;11.424;2024-03-08T15:29:35;11.40;92.30
12276;DHT22;6200;48.144;11.424;2024-03-08T15:32:01;11.40;92.40
12276;DHT22;6200;48.144;11.424;2024-03-08T15:34:28;11.40;92.50
12276;DHT22;6200;48.144;11.424;2024-03-08T15:36:53;11.30;92.00
12276;DHT22;6200;48.144;11.424;2024-03-08T15:39:19;11.10;92.00
12276;DHT22;6200;48.144;11.424;2024-03-08T15:41:49;11.10;92.50
12276;DHT22;6200;48.144;11.424;2024-03-08T15:44:15;11.00;92.30
12276;DHT22;6200;48.144;11.424;2024-03-08T15:46:41;11.00;92.40
12276;DHT22;6200;48.144;11.424;2024-03-08T15:49:06;10.90;92.70